createdAt,value
2022-08-26T00:02:29.945Z,99632.00
2022-08-26T00:05:34.928Z,99626.97
2022-08-26T00:08:49.887Z,99642.75
2022-08-26T00:11:55.876Z,99635.56
2022-08-26T00:15:00.393Z,99654.06
2022-08-26T00:18:16.947Z,99638.75
2022-08-26T00:21:27.451Z,99652.00
2022-08-26T00:24:32.381Z,99644.34
2022-08-26T00:27:37.555Z,99654.22
2022-08-26T00:30:43.351Z,99658.53
2022-08-26T00:33:50.403Z,99651.63
2022-08-26T00:36:55.416Z,99650.16
2022-08-26T00:40:00.997Z,99658.19
2022-08-26T00:43:10.147Z,99640.22
2022-08-26T00:46:30.169Z,99650.06
2022-08-26T00:49:40.543Z,99667.53
2022-08-26T00:52:47.474Z,99662.22
2022-08-26T00:56:04.958Z,99661.97
2022-08-26T00:59:13.103Z,99665.81
2022-08-26T01:02:21.158Z,99668.09
2022-08-26T01:05:26.466Z,99670.28
2022-08-26T01:08:32.184Z,99640.94
2022-08-26T01:11:37.565Z,99675.97
2022-08-26T01:14:42.445Z,99667.56
2022-08-26T01:17:52.034Z,99667.06
2022-08-26T01:21:15.858Z,99681.53
2022-08-26T01:24:22.400Z,99671.28
2022-08-26T01:27:32.543Z,99676.25
2022-08-26T01:30:41.741Z,99675.78
2022-08-26T01:34:09.058Z,99659.03
2022-08-26T01:37:18.178Z,99656.63
2022-08-26T01:40:27.711Z,99663.03
2022-08-26T01:43:35.300Z,99641.38
2022-08-26T01:46:39.960Z,99653.13
2022-08-26T01:49:47.712Z,99656.88
2022-08-26T01:52:56.390Z,99659.63
2022-08-26T01:56:03.343Z,99656.13
2022-08-26T01:59:13.213Z,99659.19
2022-08-26T02:02:18.955Z,99644.66
2022-08-26T02:05:23.346Z,99646.13
2022-08-26T02:08:42.684Z,99648.47
2022-08-26T02:11:48.614Z,99623.38
2022-08-26T02:14:59.120Z,99640.63
2022-08-26T02:18:06.456Z,99635.81
2022-08-26T02:21:14.349Z,99625.63
2022-08-26T02:24:23.342Z,99623.84
2022-08-26T02:27:34.786Z,99633.13
2022-08-26T02:30:41.378Z,99628.25
2022-08-26T02:33:46.089Z,99626.75
2022-08-26T02:36:51.059Z,99614.53
2022-08-26T02:39:55.685Z,99615.06
2022-08-26T02:43:01.697Z,99616.63
2022-08-26T02:46:06.890Z,99619.94
2022-08-26T02:49:11.786Z,99615.69
2022-08-26T02:52:16.580Z,99617.91
2022-08-26T02:55:21.283Z,99624.81
2022-08-26T02:58:29.355Z,99631.84
2022-08-26T03:01:37.030Z,99633.75
2022-08-26T03:04:58.033Z,99620.72
2022-08-26T03:08:07.886Z,99622.69
2022-08-26T03:11:15.049Z,99614.31
2022-08-26T03:14:19.999Z,99610.81
2022-08-26T03:17:25.307Z,99598.47
2022-08-26T03:20:31.812Z,99599.66
2022-08-26T03:23:36.421Z,99600.66
2022-08-26T03:26:52.425Z,99599.41
2022-08-26T03:30:16.533Z,99588.00
2022-08-26T03:33:21.119Z,99601.47
2022-08-26T03:36:25.617Z,99587.41
2022-08-26T03:39:31.496Z,99586.44
2022-08-26T03:42:41.672Z,99595.91
2022-08-26T03:45:49.956Z,99580.38
2022-08-26T03:48:56.423Z,99609.44
2022-08-26T03:52:01.052Z,99606.22
2022-08-26T03:55:09.894Z,99617.41
2022-08-26T03:58:14.801Z,99604.16
2022-08-26T04:01:19.879Z,99621.09
2022-08-26T04:04:24.561Z,99610.63
2022-08-26T04:07:29.562Z,99594.75
2022-08-26T04:10:39.301Z,99604.38
2022-08-26T04:13:44.317Z,99595.88
2022-08-26T04:16:49.701Z,99605.34
2022-08-26T04:19:55.332Z,99603.34
2022-08-26T04:23:00.378Z,99587.63
2022-08-26T04:26:05.111Z,99599.47
2022-08-26T04:29:13.547Z,99611.06
2022-08-26T04:32:18.494Z,99619.84
2022-08-26T04:35:26.045Z,99630.66
2022-08-26T04:38:31.310Z,99630.09
2022-08-26T04:41:35.898Z,99640.72
2022-08-26T04:44:42.021Z,99631.25
2022-08-26T04:47:47.669Z,99630.78
2022-08-26T04:50:52.742Z,99646.75
2022-08-26T04:53:58.513Z,99663.47
2022-08-26T04:57:03.446Z,99638.19
2022-08-26T05:00:14.401Z,99657.28
2022-08-26T05:03:20.595Z,99648.81
2022-08-26T05:06:25.532Z,99662.09
2022-08-26T05:09:30.495Z,99642.88
2022-08-26T05:12:35.545Z,99634.66
2022-08-26T05:15:40.345Z,99633.94
2022-08-26T05:18:46.567Z,99643.97
2022-08-26T05:21:51.090Z,99654.22
2022-08-26T05:24:56.014Z,99663.53
2022-08-26T05:28:00.887Z,99647.75
2022-08-26T05:31:14.788Z,99665.75
2022-08-26T05:34:21.861Z,99649.00
2022-08-26T05:37:27.790Z,99645.19
2022-08-26T05:40:37.674Z,99650.09
2022-08-26T05:43:42.821Z,99630.38
2022-08-26T05:46:47.455Z,99649.72
2022-08-26T05:49:52.096Z,99643.72
2022-08-26T05:52:57.162Z,99637.47
2022-08-26T05:56:01.789Z,99623.88
2022-08-26T05:59:06.815Z,99635.13
2022-08-26T06:02:18.936Z,99627.34
2022-08-26T06:05:23.900Z,99633.28
2022-08-26T06:08:29.303Z,99639.81
2022-08-26T06:11:34.739Z,99637.41
2022-08-26T06:14:39.225Z,99636.56
2022-08-26T06:17:43.994Z,99631.78
2022-08-26T06:20:57.999Z,99621.63
2022-08-26T06:24:33.480Z,99632.44
2022-08-26T06:27:38.506Z,99600.78
2022-08-26T06:30:43.629Z,99616.75
2022-08-26T06:33:48.388Z,99618.00
2022-08-26T06:36:54.495Z,99627.56
2022-08-26T06:39:59.385Z,99615.97
2022-08-26T06:43:04.128Z,99594.50
2022-08-26T06:46:11.960Z,99631.53
2022-08-26T06:49:17.396Z,99611.16
2022-08-26T06:52:24.582Z,99611.75
2022-08-26T06:55:29.670Z,99631.69
2022-08-26T06:58:36.195Z,99618.00
2022-08-26T07:01:47.013Z,99627.19
2022-08-26T07:04:54.394Z,99633.03
2022-08-26T07:08:01.610Z,99633.00
2022-08-26T07:11:08.550Z,99634.44
2022-08-26T07:14:14.005Z,99653.47
2022-08-26T07:17:18.518Z,99648.19
2022-08-26T07:20:25.091Z,99649.72
2022-08-26T07:23:29.620Z,99661.63
2022-08-26T07:26:34.220Z,99670.53
2022-08-26T07:29:40.779Z,99697.78
2022-08-26T07:32:45.605Z,99688.31
2022-08-26T07:35:50.231Z,99692.94
2022-08-26T07:38:55.897Z,99677.56
2022-08-26T07:42:07.278Z,99708.28
2022-08-26T07:45:12.762Z,99710.66
2022-08-26T07:48:18.840Z,99723.16
2022-08-26T07:51:26.972Z,99705.50
2022-08-26T07:54:32.596Z,99666.97
2022-08-26T07:57:40.373Z,99713.09
2022-08-26T08:00:49.387Z,99713.34
2022-08-26T08:03:56.668Z,99717.38
2022-08-26T08:07:02.227Z,99720.09
2022-08-26T08:10:11.593Z,99723.38
2022-08-26T08:13:17.233Z,99739.56
2022-08-26T08:16:23.687Z,99755.75
2022-08-26T08:19:36.713Z,99747.09
2022-08-26T08:22:43.450Z,99770.25
2022-08-26T08:25:49.963Z,99769.50
2022-08-26T08:28:57.538Z,99766.13
2022-08-26T08:32:02.206Z,99769.59
2022-08-26T08:35:10.836Z,99775.44
2022-08-26T08:38:15.861Z,99780.03
2022-08-26T08:42:23.705Z,99773.41
2022-08-26T08:46:07.178Z,99768.63
2022-08-26T08:49:14.920Z,99770.19
2022-08-26T08:52:28.580Z,99776.63
2022-08-26T08:55:45.405Z,99769.13
2022-08-26T08:58:58.137Z,99779.44
2022-08-26T09:02:12.891Z,99784.97
2022-08-26T09:05:34.956Z,99771.19
2022-08-26T09:08:42.070Z,99764.50
2022-08-26T09:11:47.547Z,99774.44
2022-08-26T09:14:57.600Z,99755.50
2022-08-26T09:18:19.667Z,99785.88
2022-08-26T09:21:26.206Z,99779.78
2022-08-26T09:24:41.909Z,99781.06
2022-08-26T09:27:55.220Z,99788.38
2022-08-26T09:31:12.469Z,99788.59
2022-08-26T09:34:26.680Z,99790.63
2022-08-26T09:37:43.914Z,99792.97
2022-08-26T09:41:20.824Z,99796.16
2022-08-26T09:44:25.740Z,99794.50
2022-08-26T09:47:40.976Z,99804.50
2022-08-26T09:50:59.056Z,99808.38
2022-08-26T09:54:05.761Z,99819.25
2022-08-26T09:57:28.446Z,99810.09
2022-08-26T10:00:54.707Z,99811.25
2022-08-26T10:04:13.217Z,99805.22
2022-08-26T10:07:40.106Z,99814.81
2022-08-26T10:10:46.766Z,99805.31
2022-08-26T10:14:05.757Z,99814.91
2022-08-26T10:17:36.972Z,99822.47
2022-08-26T10:20:58.909Z,99826.00
2022-08-26T10:24:05.949Z,99837.88
2022-08-26T10:27:31.995Z,99839.19
2022-08-26T10:30:42.802Z,99857.88
2022-08-26T10:33:47.678Z,99855.09
2022-08-26T10:37:13.604Z,99853.44
2022-08-26T10:40:31.980Z,99866.25
2022-08-26T10:44:00.240Z,99873.44
2022-08-26T10:47:16.751Z,99867.41
2022-08-26T10:50:25.849Z,99881.56
2022-08-26T10:53:51.465Z,99872.75
2022-08-26T10:57:18.472Z,99869.34
2022-08-26T11:01:16.150Z,99858.66
2022-08-26T11:04:42.371Z,99877.34
2022-08-26T11:07:53.622Z,99885.06
2022-08-26T11:11:01.301Z,99883.50
2022-08-26T11:14:08.404Z,99887.63
2022-08-26T11:17:13.069Z,99874.53
2022-08-26T11:20:42.587Z,99893.44
2022-08-26T11:23:50.524Z,99883.13
2022-08-26T11:26:56.744Z,99881.69
2022-08-26T11:30:10.073Z,99873.88
2022-08-26T11:33:51.816Z,99889.44
2022-08-26T11:36:58.331Z,99894.59
2022-08-26T11:40:05.764Z,99901.53
2022-08-26T11:43:19.642Z,99905.91
2022-08-26T11:46:36.591Z,99886.19
2022-08-26T11:49:41.813Z,99898.09
2022-08-26T11:52:56.448Z,99895.16
2022-08-26T11:56:07.186Z,99904.16
2022-08-26T11:59:16.382Z,99903.38
2022-08-26T12:02:22.018Z,99872.31
2022-08-26T12:05:38.205Z,99905.22
2022-08-26T12:08:46.155Z,99911.53
2022-08-26T12:11:51.182Z,99890.47
2022-08-26T12:15:16.515Z,99905.69
2022-08-26T12:18:29.590Z,99921.91
2022-08-26T12:21:35.594Z,99897.06
2022-08-26T12:24:49.464Z,99916.28
2022-08-26T12:27:54.210Z,99913.47
2022-08-26T12:31:07.882Z,99909.31
2022-08-26T12:34:18.760Z,99908.34
2022-08-26T12:37:23.832Z,99905.66
2022-08-26T12:40:46.303Z,99905.91
2022-08-26T12:43:50.981Z,99917.25
2022-08-26T12:47:01.942Z,99912.00
2022-08-26T12:50:35.118Z,99913.72
2022-08-26T12:53:44.555Z,99907.16
2022-08-26T12:56:49.280Z,99875.13
2022-08-26T13:00:28.707Z,99904.81
2022-08-26T13:03:36.133Z,99910.34
2022-08-26T13:06:41.248Z,99902.59
2022-08-26T13:09:45.636Z,99894.03
2022-08-26T13:12:50.284Z,99888.09
2022-08-26T13:15:55.047Z,99900.34
2022-08-26T13:19:05.851Z,99900.75
2022-08-26T13:22:16.116Z,99898.41
2022-08-26T13:25:20.653Z,99895.00
2022-08-26T13:28:25.128Z,99899.03
2022-08-26T13:31:32.442Z,99888.13
2022-08-26T13:34:39.469Z,99893.53
2022-08-26T13:37:43.930Z,99884.97
2022-08-26T13:40:51.020Z,99878.16
2022-08-26T13:43:55.631Z,99890.00
2022-08-26T13:47:00.568Z,99894.34
2022-08-26T13:50:06.789Z,99896.69
2022-08-26T13:53:11.613Z,99889.94
2022-08-26T13:56:16.130Z,99888.59
2022-08-26T13:59:20.759Z,99867.00
2022-08-26T14:02:25.562Z,99868.34
2022-08-26T14:05:30.828Z,99867.50
2022-08-26T14:08:35.613Z,99877.69
2022-08-26T14:11:54.574Z,99872.38
2022-08-26T14:14:59.528Z,99867.59
2022-08-26T14:18:07.756Z,99894.34
2022-08-26T14:21:14.786Z,99875.97
2022-08-26T14:24:19.423Z,99862.41
2022-08-26T14:27:24.175Z,99902.09
2022-08-26T14:30:30.040Z,99911.63
2022-08-26T14:33:38.924Z,99913.53
2022-08-26T14:36:44.311Z,99902.53
2022-08-26T14:39:49.501Z,99896.91
2022-08-26T14:42:56.044Z,99895.69
2022-08-26T14:46:03.516Z,99855.06
2022-08-26T14:49:10.741Z,99868.19
2022-08-26T14:52:15.651Z,99877.97
2022-08-26T14:55:20.388Z,99881.13
2022-08-26T14:58:25.238Z,99874.56
2022-08-26T15:01:35.885Z,99888.13
2022-08-26T15:04:41.421Z,99902.94
2022-08-26T15:07:45.835Z,99901.50
2022-08-26T15:10:50.562Z,99899.28
2022-08-26T15:13:55.352Z,99882.16
2022-08-26T15:17:00.052Z,99891.09
2022-08-26T15:20:08.708Z,99898.78
2022-08-26T15:23:13.280Z,99898.00
2022-08-26T15:26:18.826Z,99910.25
2022-08-26T15:29:24.775Z,99912.88
2022-08-26T15:32:30.349Z,99910.84
2022-08-26T15:35:36.052Z,99926.31
2022-08-26T15:38:45.390Z,99922.72
2022-08-26T15:41:50.118Z,99936.84
2022-08-26T15:44:54.852Z,99929.56
2022-08-26T15:48:01.579Z,99944.81
2022-08-26T15:51:12.617Z,99951.03
2022-08-26T15:54:18.671Z,99951.41
2022-08-26T15:57:23.350Z,99951.69
2022-08-26T16:00:28.271Z,99955.94
2022-08-26T16:03:32.819Z,99973.66
2022-08-26T16:06:40.002Z,99974.25
2022-08-26T16:09:44.688Z,99967.91
2022-08-26T16:12:51.132Z,99955.66
2022-08-26T16:15:55.775Z,99941.56
2022-08-26T16:19:05.551Z,99948.41
2022-08-26T16:22:11.969Z,99944.50
2022-08-26T16:25:16.709Z,99943.81
2022-08-26T16:28:26.243Z,99954.31
2022-08-26T16:31:31.239Z,99944.16
2022-08-26T16:34:36.853Z,99950.69
2022-08-26T16:37:41.333Z,99943.78
2022-08-26T16:40:46.217Z,99935.47
2022-08-26T16:43:50.899Z,99940.69
2022-08-26T16:46:58.757Z,99948.22
2022-08-26T16:50:05.001Z,99945.38
2022-08-26T16:56:23.995Z,99938.94
2022-08-26T16:59:38.403Z,99946.13
2022-08-26T17:02:43.021Z,99949.09
2022-08-26T17:05:47.719Z,99936.47
2022-08-26T17:08:53.352Z,99940.38
2022-08-26T17:11:57.995Z,99945.28
2022-08-26T17:15:02.491Z,99931.44
2022-08-26T17:18:08.879Z,99935.06
2022-08-26T17:21:15.303Z,99946.19
2022-08-26T17:24:20.091Z,99942.91
2022-08-26T17:27:24.787Z,99947.25
2022-08-26T17:30:30.918Z,99942.91
2022-08-26T17:33:35.747Z,99925.34
2022-08-26T17:36:42.788Z,99920.81
2022-08-26T17:39:47.332Z,99909.25
2022-08-26T17:42:53.267Z,99916.16
2022-08-26T17:46:04.675Z,99921.84
2022-08-26T17:49:12.779Z,99919.56
2022-08-26T17:52:17.727Z,99916.63
2022-08-26T17:55:22.632Z,99888.56
2022-08-26T17:58:27.523Z,99910.09
2022-08-26T18:01:33.867Z,99922.84
2022-08-26T18:04:38.544Z,99909.06
2022-08-26T18:07:43.987Z,99916.69
2022-08-26T18:10:48.669Z,99925.19
2022-08-26T18:13:54.108Z,99914.53
2022-08-26T18:16:58.929Z,99921.88
2022-08-26T18:20:03.942Z,99904.22
2022-08-26T18:23:09.096Z,99911.81
2022-08-26T18:26:32.536Z,99911.44
2022-08-26T18:29:37.270Z,99882.91
2022-08-26T18:32:51.515Z,99891.38
2022-08-26T18:35:56.821Z,99896.03
2022-08-26T18:39:02.098Z,99873.19
2022-08-26T18:42:07.245Z,99879.44
2022-08-26T18:45:15.959Z,99884.75
2022-08-26T18:48:20.861Z,99880.84
2022-08-26T18:51:30.447Z,99869.78
2022-08-26T18:54:35.191Z,99873.28
2022-08-26T18:57:40.206Z,99876.47
2022-08-26T19:00:44.755Z,99895.03
2022-08-26T19:03:49.344Z,99899.59
2022-08-26T19:06:54.792Z,99895.47
2022-08-26T19:09:59.440Z,99899.22
2022-08-26T19:13:04.247Z,99910.34
2022-08-26T19:16:25.147Z,99910.88
2022-08-26T19:19:30.343Z,99903.97
2022-08-26T19:22:34.989Z,99909.97
2022-08-26T19:25:53.428Z,99895.19
2022-08-26T19:28:58.276Z,99910.81
2022-08-26T19:32:04.444Z,99912.19
2022-08-26T19:35:10.149Z,99910.22
2022-08-26T19:38:16.409Z,99912.00
2022-08-26T19:41:29.485Z,99908.75
2022-08-26T19:45:00.512Z,99900.47
2022-08-26T19:48:06.439Z,99898.72
2022-08-26T19:51:13.722Z,99888.28
2022-08-26T19:54:18.540Z,99880.00
2022-08-26T19:57:23.054Z,99890.47
2022-08-26T20:00:29.844Z,99889.00
2022-08-26T20:03:35.327Z,99889.94
2022-08-26T20:06:40.156Z,99899.47
2022-08-26T20:09:44.889Z,99884.84
2022-08-26T20:12:52.758Z,99868.31
2022-08-26T20:15:57.585Z,99851.34
2022-08-26T20:19:21.176Z,99837.56
2022-08-26T20:22:26.602Z,99840.78
2022-08-26T20:25:33.314Z,99831.41
2022-08-26T20:28:38.130Z,99842.78
2022-08-26T20:31:44.886Z,99841.81
2022-08-26T20:34:50.338Z,99828.41
2022-08-26T20:37:55.050Z,99785.72
2022-08-26T20:41:00.042Z,99821.50
2022-08-26T20:44:05.845Z,99843.13
2022-08-26T20:47:10.404Z,99842.59
2022-08-26T20:50:15.319Z,99805.81
2022-08-26T20:53:19.920Z,99831.78
2022-08-26T20:56:29.061Z,99836.78
2022-08-26T20:59:34.374Z,99832.56
2022-08-26T21:02:39.266Z,99858.34
2022-08-26T21:05:44.202Z,99839.25
2022-08-26T21:08:49.309Z,99863.06
2022-08-26T21:11:55.710Z,99882.63
2022-08-26T21:15:01.477Z,99880.78
2022-08-26T21:18:07.221Z,99878.34
2022-08-26T21:21:12.701Z,99868.94
2022-08-26T21:24:17.977Z,99867.41
2022-08-26T21:27:26.288Z,99863.81
2022-08-26T21:30:30.902Z,99871.34
2022-08-26T21:33:36.253Z,99872.53
2022-08-26T21:36:40.662Z,99872.41
2022-08-26T21:39:45.583Z,99875.06
2022-08-26T21:42:50.466Z,99870.41
2022-08-26T21:45:57.549Z,99872.28
2022-08-26T21:49:04.579Z,99866.94
2022-08-26T21:52:09.283Z,99860.41
2022-08-26T21:55:13.955Z,99855.22
2022-08-26T21:58:18.490Z,99863.22
2022-08-26T22:01:26.064Z,99852.19
2022-08-26T22:04:30.669Z,99850.25
2022-08-26T22:07:35.505Z,99850.03
2022-08-26T22:10:43.236Z,99858.94
2022-08-26T22:13:49.749Z,99866.44
2022-08-26T22:16:55.603Z,99852.59
2022-08-26T22:20:00.521Z,99854.69
2022-08-26T22:23:06.410Z,99844.75
2022-08-26T22:26:11.825Z,99847.84
2022-08-26T22:29:16.787Z,99832.44
2022-08-26T22:32:21.427Z,99840.06
2022-08-26T22:35:29.312Z,99789.09
2022-08-26T22:38:35.316Z,99825.66
2022-08-26T22:41:40.965Z,99808.28
2022-08-26T22:44:45.393Z,99812.16
2022-08-26T22:47:50.172Z,99797.13
2022-08-26T22:51:00.197Z,99789.63
2022-08-26T22:54:05.827Z,99787.59
2022-08-26T22:57:10.372Z,99755.78
2022-08-26T23:00:15.820Z,99751.78
2022-08-26T23:03:20.733Z,99743.06
2022-08-26T23:06:27.230Z,99754.34
2022-08-26T23:09:32.350Z,99772.88
2022-08-26T23:12:38.634Z,99766.97
2022-08-26T23:15:45.545Z,99755.34
2022-08-26T23:18:51.254Z,99761.72
2022-08-26T23:21:57.189Z,99756.06
2022-08-26T23:25:01.627Z,99765.03
2022-08-26T23:28:12.936Z,99765.22
2022-08-26T23:31:17.203Z,99756.94
2022-08-26T23:34:40.448Z,99743.50
2022-08-26T23:37:48.855Z,99737.13
2022-08-26T23:40:53.851Z,99729.47
2022-08-26T23:44:03.274Z,99738.78
2022-08-26T23:47:09.098Z,99740.28
2022-08-26T23:50:13.876Z,99731.44
2022-08-26T23:53:21.915Z,99735.66
2022-08-26T23:56:26.951Z,99713.38
2022-08-26T23:59:31.563Z,99723.75
